sensor_id;sensor_type;location;lat;lon;timestamp;temperature;humidity
10042;DHT22;5061;49.068;12.058;2022-08-01T00:02:01;21.40;66.80
10042;DHT22;5061;49.068;12.058;2022-08-01T00:05:22;21.40;66.90
10042;DHT22;5061;49.068;12.058;2022-08-01T00:08:43;21.30;66.80
10042;DHT22;5061;49.068;12.058;2022-08-01T00:12:04;21.30;66.90
10042;DHT22;5061;49.068;12.058;2022-08-01T00:15:25;21.30;67.00
10042;DHT22;5061;49.068;12.058;2022-08-01T00:18:45;21.30;67.10
10042;DHT22;5061;49.068;12.058;2022-08-01T00:22:06;21.20;67.10
10042;DHT22;5061;49.068;12.058;2022-08-01T00:25:27;21.20;67.30
10042;DHT22;5061;49.068;12.058;2022-08-01T00:28:47;21.20;67.40
10042;DHT22;5061;49.068;12.058;2022-08-01T00:32:08;21.10;67.30
10042;DHT22;5061;49.068;12.058;2022-08-01T00:35:29;21.10;67.50
10042;DHT22;5061;49.068;12.058;2022-08-01T00:38:49;21.10;67.40
10042;DHT22;5061;49.068;12.058;2022-08-01T00:42:11;21.10;67.50
10042;DHT22;5061;49.068;12.058;2022-08-01T00:45:32;21.10;67.60
10042;DHT22;5061;49.068;12.058;2022-08-01T00:48:53;21.10;67.60
10042;DHT22;5061;49.068;12.058;2022-08-01T00:52:15;21.10;67.60
10042;DHT22;5061;49.068;12.058;2022-08-01T00:55:36;21.10;67.70
10042;DHT22;5061;49.068;12.058;2022-08-01T00:58:57;21.00;67.70
10042;DHT22;5061;49.068;12.058;2022-08-01T01:02:18;21.00;67.70
10042;DHT22;5061;49.068;12.058;2022-08-01T01:05:54;21.00;67.90
10042;DHT22;5061;49.068;12.058;2022-08-01T01:12:54;21.00;67.90
10042;DHT22;5061;49.068;12.058;2022-08-01T01:16:18;20.90;68.00
10042;DHT22;5061;49.068;12.058;2022-08-01T01:19:44;20.90;68.00
10042;DHT22;5061;49.068;12.058;2022-08-01T01:30:14;20.70;68.20
10042;DHT22;5061;49.068;12.058;2022-08-01T01:33:36;20.60;68.40
10042;DHT22;5061;49.068;12.058;2022-08-01T01:36:59;20.50;68.40
10042;DHT22;5061;49.068;12.058;2022-08-01T01:40:21;20.40;68.60
10042;DHT22;5061;49.068;12.058;2022-08-01T01:43:43;20.40;68.70
10042;DHT22;5061;49.068;12.058;2022-08-01T01:47:06;20.40;68.90
10042;DHT22;5061;49.068;12.058;2022-08-01T01:50:27;20.30;69.00
10042;DHT22;5061;49.068;12.058;2022-08-01T01:53:49;20.30;69.20
10042;DHT22;5061;49.068;12.058;2022-08-01T01:57:12;20.20;69.20
10042;DHT22;5061;49.068;12.058;2022-08-01T02:00:34;20.20;69.30
10042;DHT22;5061;49.068;12.058;2022-08-01T02:03:56;20.20;69.50
10042;DHT22;5061;49.068;12.058;2022-08-01T02:07:22;20.10;69.40
10042;DHT22;5061;49.068;12.058;2022-08-01T02:10:45;20.10;69.60
10042;DHT22;5061;49.068;12.058;2022-08-01T02:14:28;20.10;69.70
10042;DHT22;5061;49.068;12.058;2022-08-01T02:17:49;20.10;69.70
10042;DHT22;5061;49.068;12.058;2022-08-01T02:21:13;20.10;69.80
10042;DHT22;5061;49.068;12.058;2022-08-01T02:25:02;20.20;69.90
10042;DHT22;5061;49.068;12.058;2022-08-01T02:28:34;20.20;69.90
10042;DHT22;5061;49.068;12.058;2022-08-01T02:31:56;20.30;70.00
10042;DHT22;5061;49.068;12.058;2022-08-01T02:35:27;20.30;69.90
10042;DHT22;5061;49.068;12.058;2022-08-01T02:38:48;20.30;69.70
10042;DHT22;5061;49.068;12.058;2022-08-01T02:42:11;20.40;69.80
10042;DHT22;5061;49.068;12.058;2022-08-01T02:45:32;20.40;69.70
10042;DHT22;5061;49.068;12.058;2022-08-01T02:48:56;20.50;69.80
10042;DHT22;5061;49.068;12.058;2022-08-01T02:52:20;20.40;69.50
10042;DHT22;5061;49.068;12.058;2022-08-01T02:55:42;20.50;69.60
10042;DHT22;5061;49.068;12.058;2022-08-01T02:59:12;20.50;69.50
10042;DHT22;5061;49.068;12.058;2022-08-01T03:02:35;20.60;69.60
10042;DHT22;5061;49.068;12.058;2022-08-01T03:05:57;20.60;69.60
10042;DHT22;5061;49.068;12.058;2022-08-01T03:09:18;20.60;69.60
10042;DHT22;5061;49.068;12.058;2022-08-01T03:12:40;20.60;69.60
10042;DHT22;5061;49.068;12.058;2022-08-01T03:16:02;20.60;69.60
10042;DHT22;5061;49.068;12.058;2022-08-01T03:19:26;20.60;69.70
10042;DHT22;5061;49.068;12.058;2022-08-01T03:22:48;20.60;69.70
10042;DHT22;5061;49.068;12.058;2022-08-01T03:26:11;20.60;69.70
10042;DHT22;5061;49.068;12.058;2022-08-01T03:29:33;20.60;69.70
10042;DHT22;5061;49.068;12.058;2022-08-01T03:32:54;20.60;69.70
10042;DHT22;5061;49.068;12.058;2022-08-01T03:36:15;20.60;69.70
10042;DHT22;5061;49.068;12.058;2022-08-01T03:39:44;20.70;69.90
10042;DHT22;5061;49.068;12.058;2022-08-01T03:43:12;20.70;69.90
10042;DHT22;5061;49.068;12.058;2022-08-01T03:46:50;20.70;69.90
10042;DHT22;5061;49.068;12.058;2022-08-01T03:50:13;20.70;69.90
10042;DHT22;5061;49.068;12.058;2022-08-01T03:53:36;20.70;70.00
10042;DHT22;5061;49.068;12.058;2022-08-01T03:56:59;20.60;69.80
10042;DHT22;5061;49.068;12.058;2022-08-01T04:00:20;20.70;69.90
10042;DHT22;5061;49.068;12.058;2022-08-01T04:03:42;20.70;70.00
10042;DHT22;5061;49.068;12.058;2022-08-01T04:07:03;20.70;70.20
10042;DHT22;5061;49.068;12.058;2022-08-01T04:10:29;20.60;70.10
10042;DHT22;5061;49.068;12.058;2022-08-01T04:13:51;20.70;70.40
10042;DHT22;5061;49.068;12.058;2022-08-01T04:17:13;20.70;71.10
10042;DHT22;5061;49.068;12.058;2022-08-01T04:20:34;20.60;70.60
10042;DHT22;5061;49.068;12.058;2022-08-01T04:23:59;20.60;70.70
10042;DHT22;5061;49.068;12.058;2022-08-01T04:27:25;20.60;70.80
10042;DHT22;5061;49.068;12.058;2022-08-01T04:30:50;20.70;70.90
10042;DHT22;5061;49.068;12.058;2022-08-01T04:34:16;20.70;71.10
10042;DHT22;5061;49.068;12.058;2022-08-01T04:37:39;20.70;71.10
10042;DHT22;5061;49.068;12.058;2022-08-01T04:41:00;20.70;71.40
10042;DHT22;5061;49.068;12.058;2022-08-01T04:44:23;20.70;71.50
10042;DHT22;5061;49.068;12.058;2022-08-01T04:47:45;20.70;71.50
10042;DHT22;5061;49.068;12.058;2022-08-01T04:51:12;20.80;71.70
10042;DHT22;5061;49.068;12.058;2022-08-01T04:54:34;20.80;71.80
10042;DHT22;5061;49.068;12.058;2022-08-01T04:57:58;20.80;71.90
10042;DHT22;5061;49.068;12.058;2022-08-01T05:01:18;20.80;72.00
10042;DHT22;5061;49.068;12.058;2022-08-01T05:04:40;20.80;72.30
10042;DHT22;5061;49.068;12.058;2022-08-01T05:08:01;20.80;72.30
10042;DHT22;5061;49.068;12.058;2022-08-01T05:11:22;20.80;72.30
10042;DHT22;5061;49.068;12.058;2022-08-01T05:14:42;20.90;72.50
10042;DHT22;5061;49.068;12.058;2022-08-01T05:18:04;20.90;72.80
10042;DHT22;5061;49.068;12.058;2022-08-01T05:21:25;21.00;72.90
10042;DHT22;5061;49.068;12.058;2022-08-01T05:24:45;21.10;73.10
10042;DHT22;5061;49.068;12.058;2022-08-01T05:28:07;21.20;73.20
10042;DHT22;5061;49.068;12.058;2022-08-01T05:31:28;21.30;73.40
10042;DHT22;5061;49.068;12.058;2022-08-01T05:34:48;21.40;73.50
10042;DHT22;5061;49.068;12.058;2022-08-01T05:38:09;21.50;73.60
10042;DHT22;5061;49.068;12.058;2022-08-01T05:41:30;21.60;73.70
10042;DHT22;5061;49.068;12.058;2022-08-01T05:44:51;21.70;73.70
10042;DHT22;5061;49.068;12.058;2022-08-01T05:48:11;21.60;73.70
10042;DHT22;5061;49.068;12.058;2022-08-01T05:51:32;21.60;73.80
10042;DHT22;5061;49.068;12.058;2022-08-01T05:54:53;21.60;74.10
10042;DHT22;5061;49.068;12.058;2022-08-01T05:58:13;21.60;74.10
10042;DHT22;5061;49.068;12.058;2022-08-01T06:01:34;21.60;74.10
10042;DHT22;5061;49.068;12.058;2022-08-01T06:04:55;21.60;74.40
10042;DHT22;5061;49.068;12.058;2022-08-01T06:08:16;21.70;74.60
10042;DHT22;5061;49.068;12.058;2022-08-01T06:11:36;21.70;74.60
10042;DHT22;5061;49.068;12.058;2022-08-01T06:14:57;21.70;74.70
10042;DHT22;5061;49.068;12.058;2022-08-01T06:18:19;21.70;74.80
10042;DHT22;5061;49.068;12.058;2022-08-01T06:21:40;21.70;75.00
10042;DHT22;5061;49.068;12.058;2022-08-01T06:25:00;21.70;75.20
10042;DHT22;5061;49.068;12.058;2022-08-01T06:28:21;21.70;75.20
10042;DHT22;5061;49.068;12.058;2022-08-01T06:31:42;21.80;75.40
10042;DHT22;5061;49.068;12.058;2022-08-01T06:35:03;21.80;75.60
10042;DHT22;5061;49.068;12.058;2022-08-01T06:38:24;21.80;75.80
10042;DHT22;5061;49.068;12.058;2022-08-01T06:41:45;21.80;75.80
10042;DHT22;5061;49.068;12.058;2022-08-01T06:45:10;21.80;75.80
10042;DHT22;5061;49.068;12.058;2022-08-01T06:48:31;21.90;76.10
10042;DHT22;5061;49.068;12.058;2022-08-01T06:51:52;21.90;75.90
10042;DHT22;5061;49.068;12.058;2022-08-01T06:55:13;22.00;76.40
10042;DHT22;5061;49.068;12.058;2022-08-01T06:58:34;22.00;76.40
10042;DHT22;5061;49.068;12.058;2022-08-01T07:01:55;22.10;76.60
10042;DHT22;5061;49.068;12.058;2022-08-01T07:05:16;22.10;76.70
10042;DHT22;5061;49.068;12.058;2022-08-01T07:08:36;22.10;76.70
10042;DHT22;5061;49.068;12.058;2022-08-01T07:11:57;22.20;76.90
10042;DHT22;5061;49.068;12.058;2022-08-01T07:15:17;22.30;77.00
10042;DHT22;5061;49.068;12.058;2022-08-01T07:18:41;22.40;76.80
10042;DHT22;5061;49.068;12.058;2022-08-01T07:22:01;22.50;76.90
10042;DHT22;5061;49.068;12.058;2022-08-01T07:25:22;22.60;77.00
10042;DHT22;5061;49.068;12.058;2022-08-01T07:28:43;22.60;77.20
10042;DHT22;5061;49.068;12.058;2022-08-01T07:32:04;22.60;77.20
10042;DHT22;5061;49.068;12.058;2022-08-01T07:35:24;22.70;77.30
10042;DHT22;5061;49.068;12.058;2022-08-01T07:38:46;22.70;77.40
10042;DHT22;5061;49.068;12.058;2022-08-01T07:42:06;22.80;77.40
10042;DHT22;5061;49.068;12.058;2022-08-01T07:45:27;22.80;77.20
10042;DHT22;5061;49.068;12.058;2022-08-01T07:48:48;22.80;77.30
10042;DHT22;5061;49.068;12.058;2022-08-01T07:52:08;22.80;77.30
10042;DHT22;5061;49.068;12.058;2022-08-01T07:55:29;22.80;77.60
10042;DHT22;5061;49.068;12.058;2022-08-01T07:58:50;22.80;77.40
10042;DHT22;5061;49.068;12.058;2022-08-01T08:02:11;22.80;77.60
10042;DHT22;5061;49.068;12.058;2022-08-01T08:05:32;22.90;77.80
10042;DHT22;5061;49.068;12.058;2022-08-01T08:08:55;22.90;77.70
10042;DHT22;5061;49.068;12.058;2022-08-01T08:12:16;23.00;77.70
10042;DHT22;5061;49.068;12.058;2022-08-01T08:15:37;23.10;77.80
10042;DHT22;5061;49.068;12.058;2022-08-01T08:18:57;23.20;77.70
10042;DHT22;5061;49.068;12.058;2022-08-01T08:22:18;23.40;78.00
10042;DHT22;5061;49.068;12.058;2022-08-01T08:25:39;23.50;77.50
10042;DHT22;5061;49.068;12.058;2022-08-01T08:28:59;23.60;78.00
10042;DHT22;5061;49.068;12.058;2022-08-01T08:32:20;23.60;77.00
10042;DHT22;5061;49.068;12.058;2022-08-01T08:35:41;23.60;76.60
10042;DHT22;5061;49.068;12.058;2022-08-01T08:39:02;23.60;76.50
10042;DHT22;5061;49.068;12.058;2022-08-01T08:42:22;23.70;76.50
10042;DHT22;5061;49.068;12.058;2022-08-01T08:45:44;23.80;76.40
10042;DHT22;5061;49.068;12.058;2022-08-01T08:49:06;23.80;75.90
10042;DHT22;5061;49.068;12.058;2022-08-01T08:52:27;23.80;75.70
10042;DHT22;5061;49.068;12.058;2022-08-01T08:55:48;23.90;75.80
10042;DHT22;5061;49.068;12.058;2022-08-01T08:59:11;24.00;75.70
10042;DHT22;5061;49.068;12.058;2022-08-01T09:02:33;24.00;75.40
10042;DHT22;5061;49.068;12.058;2022-08-01T09:05:54;24.10;75.40
10042;DHT22;5061;49.068;12.058;2022-08-01T09:09:14;24.10;75.10
10042;DHT22;5061;49.068;12.058;2022-08-01T09:12:37;24.20;75.10
10042;DHT22;5061;49.068;12.058;2022-08-01T09:15:57;24.20;75.20
10042;DHT22;5061;49.068;12.058;2022-08-01T09:19:21;24.30;75.00
10042;DHT22;5061;49.068;12.058;2022-08-01T09:22:42;24.50;74.90
10042;DHT22;5061;49.068;12.058;2022-08-01T09:26:02;24.60;74.50
10042;DHT22;5061;49.068;12.058;2022-08-01T09:29:26;24.50;74.40
10042;DHT22;5061;49.068;12.058;2022-08-01T09:33:00;24.60;74.30
10042;DHT22;5061;49.068;12.058;2022-08-01T09:36:23;24.70;74.20
10042;DHT22;5061;49.068;12.058;2022-08-01T09:39:44;24.80;74.30
10042;DHT22;5061;49.068;12.058;2022-08-01T09:43:12;24.90;74.30
10042;DHT22;5061;49.068;12.058;2022-08-01T09:46:33;25.10;73.70
10042;DHT22;5061;49.068;12.058;2022-08-01T09:49:55;25.10;73.30
10042;DHT22;5061;49.068;12.058;2022-08-01T09:53:16;25.10;73.10
10042;DHT22;5061;49.068;12.058;2022-08-01T09:56:41;25.20;71.70
10042;DHT22;5061;49.068;12.058;2022-08-01T10:00:03;25.20;72.00
10042;DHT22;5061;49.068;12.058;2022-08-01T10:03:26;25.10;71.50
10042;DHT22;5061;49.068;12.058;2022-08-01T10:06:50;25.10;71.50
10042;DHT22;5061;49.068;12.058;2022-08-01T10:10:15;25.10;71.60
10042;DHT22;5061;49.068;12.058;2022-08-01T10:13:36;25.10;71.40
10042;DHT22;5061;49.068;12.058;2022-08-01T10:16:58;25.10;70.50
10042;DHT22;5061;49.068;12.058;2022-08-01T10:20:21;25.10;70.20
10042;DHT22;5061;49.068;12.058;2022-08-01T10:23:42;25.30;70.20
10042;DHT22;5061;49.068;12.058;2022-08-01T10:27:07;25.50;69.10
10042;DHT22;5061;49.068;12.058;2022-08-01T10:30:28;25.60;68.30
10042;DHT22;5061;49.068;12.058;2022-08-01T10:33:50;25.60;67.90
10042;DHT22;5061;49.068;12.058;2022-08-01T10:37:10;25.50;67.60
10042;DHT22;5061;49.068;12.058;2022-08-01T10:40:33;25.50;67.90
10042;DHT22;5061;49.068;12.058;2022-08-01T10:43:54;25.50;68.10
10042;DHT22;5061;49.068;12.058;2022-08-01T10:47:20;25.40;68.30
10042;DHT22;5061;49.068;12.058;2022-08-01T10:50:46;25.40;68.40
10042;DHT22;5061;49.068;12.058;2022-08-01T10:54:08;25.40;68.20
10042;DHT22;5061;49.068;12.058;2022-08-01T10:57:46;25.40;68.10
10042;DHT22;5061;49.068;12.058;2022-08-01T11:01:24;25.30;68.20
10042;DHT22;5061;49.068;12.058;2022-08-01T11:04:50;25.40;68.20
10042;DHT22;5061;49.068;12.058;2022-08-01T11:08:23;25.40;67.90
10042;DHT22;5061;49.068;12.058;2022-08-01T11:11:58;25.60;68.30
10042;DHT22;5061;49.068;12.058;2022-08-01T11:15:21;25.80;67.60
10042;DHT22;5061;49.068;12.058;2022-08-01T11:18:51;25.80;67.00
10042;DHT22;5061;49.068;12.058;2022-08-01T11:22:11;25.80;67.40
10042;DHT22;5061;49.068;12.058;2022-08-01T11:29:14;26.00;67.80
10042;DHT22;5061;49.068;12.058;2022-08-01T11:32:56;26.30;68.00
10042;DHT22;5061;49.068;12.058;2022-08-01T11:36:17;26.50;67.00
10042;DHT22;5061;49.068;12.058;2022-08-01T11:39:38;26.50;65.50
10042;DHT22;5061;49.068;12.058;2022-08-01T11:50:06;26.00;65.80
10042;DHT22;5061;49.068;12.058;2022-08-01T11:53:27;26.00;66.10
10042;DHT22;5061;49.068;12.058;2022-08-01T11:56:47;25.90;65.40
10042;DHT22;5061;49.068;12.058;2022-08-01T12:00:16;26.10;65.80
10042;DHT22;5061;49.068;12.058;2022-08-01T12:03:37;26.30;66.00
10042;DHT22;5061;49.068;12.058;2022-08-01T12:07:12;26.60;65.40
10042;DHT22;5061;49.068;12.058;2022-08-01T12:10:36;26.60;65.20
10042;DHT22;5061;49.068;12.058;2022-08-01T12:13:56;26.50;65.30
10042;DHT22;5061;49.068;12.058;2022-08-01T12:17:17;26.50;65.50
10042;DHT22;5061;49.068;12.058;2022-08-01T12:20:40;26.40;65.40
10042;DHT22;5061;49.068;12.058;2022-08-01T12:24:02;26.30;65.30
10042;DHT22;5061;49.068;12.058;2022-08-01T12:27:28;26.20;65.10
10042;DHT22;5061;49.068;12.058;2022-08-01T12:30:49;26.20;65.30
10042;DHT22;5061;49.068;12.058;2022-08-01T12:34:28;26.30;65.50
10042;DHT22;5061;49.068;12.058;2022-08-01T12:37:55;26.30;65.50
10042;DHT22;5061;49.068;12.058;2022-08-01T12:41:16;26.50;65.20
10042;DHT22;5061;49.068;12.058;2022-08-01T12:44:38;26.50;64.90
10042;DHT22;5061;49.068;12.058;2022-08-01T12:47:59;26.50;64.80
10042;DHT22;5061;49.068;12.058;2022-08-01T12:51:21;26.60;64.70
10042;DHT22;5061;49.068;12.058;2022-08-01T12:55:01;26.70;64.70
10042;DHT22;5061;49.068;12.058;2022-08-01T12:58:22;26.90;64.40
10042;DHT22;5061;49.068;12.058;2022-08-01T13:01:43;27.00;63.80
10042;DHT22;5061;49.068;12.058;2022-08-01T13:05:04;27.00;63.70
10042;DHT22;5061;49.068;12.058;2022-08-01T13:11:49;27.20;63.20
10042;DHT22;5061;49.068;12.058;2022-08-01T13:15:20;27.40;63.30
10042;DHT22;5061;49.068;12.058;2022-08-01T13:18:48;27.70;62.80
10042;DHT22;5061;49.068;12.058;2022-08-01T13:22:10;27.70;62.00
10042;DHT22;5061;49.068;12.058;2022-08-01T13:25:31;27.70;61.90
10042;DHT22;5061;49.068;12.058;2022-08-01T13:29:04;27.70;61.80
10042;DHT22;5061;49.068;12.058;2022-08-01T13:32:25;28.00;61.70
10042;DHT22;5061;49.068;12.058;2022-08-01T13:35:46;28.30;60.70
10042;DHT22;5061;49.068;12.058;2022-08-01T13:39:08;28.50;59.20
10042;DHT22;5061;49.068;12.058;2022-08-01T13:42:47;28.70;59.40
10042;DHT22;5061;49.068;12.058;2022-08-01T13:46:07;28.80;58.80
10042;DHT22;5061;49.068;12.058;2022-08-01T13:49:28;28.90;58.50
10042;DHT22;5061;49.068;12.058;2022-08-01T13:52:48;28.80;58.70
10042;DHT22;5061;49.068;12.058;2022-08-01T13:56:09;28.70;58.20
10042;DHT22;5061;49.068;12.058;2022-08-01T13:59:30;28.80;58.20
10042;DHT22;5061;49.068;12.058;2022-08-01T14:02:51;28.80;57.80
10042;DHT22;5061;49.068;12.058;2022-08-01T14:06:12;29.00;57.80
10042;DHT22;5061;49.068;12.058;2022-08-01T14:09:32;29.30;57.80
10042;DHT22;5061;49.068;12.058;2022-08-01T14:12:55;29.40;57.10
10042;DHT22;5061;49.068;12.058;2022-08-01T14:16:16;29.30;56.60
10042;DHT22;5061;49.068;12.058;2022-08-01T14:19:38;29.20;55.80
10042;DHT22;5061;49.068;12.058;2022-08-01T14:22:58;29.30;55.90
10042;DHT22;5061;49.068;12.058;2022-08-01T14:26:19;29.60;54.80
10042;DHT22;5061;49.068;12.058;2022-08-01T14:29:40;29.80;54.50
10042;DHT22;5061;49.068;12.058;2022-08-01T14:33:00;30.00;55.00
10042;DHT22;5061;49.068;12.058;2022-08-01T14:36:21;30.00;54.50
10042;DHT22;5061;49.068;12.058;2022-08-01T14:39:42;30.00;54.80
10042;DHT22;5061;49.068;12.058;2022-08-01T14:43:02;30.00;54.40
10042;DHT22;5061;49.068;12.058;2022-08-01T14:46:23;29.80;53.80
10042;DHT22;5061;49.068;12.058;2022-08-01T14:49:44;29.90;54.10
10042;DHT22;5061;49.068;12.058;2022-08-01T14:53:04;30.10;53.90
10042;DHT22;5061;49.068;12.058;2022-08-01T14:56:25;30.20;53.30
10042;DHT22;5061;49.068;12.058;2022-08-01T14:59:45;30.10;53.10
10042;DHT22;5061;49.068;12.058;2022-08-01T15:03:07;30.00;53.40
10042;DHT22;5061;49.068;12.058;2022-08-01T15:06:27;30.00;52.80
10042;DHT22;5061;49.068;12.058;2022-08-01T15:09:48;30.00;53.30
10042;DHT22;5061;49.068;12.058;2022-08-01T15:13:09;30.10;52.60
10042;DHT22;5061;49.068;12.058;2022-08-01T15:16:29;30.00;52.30
10042;DHT22;5061;49.068;12.058;2022-08-01T15:19:52;29.90;52.40
10042;DHT22;5061;49.068;12.058;2022-08-01T15:23:13;29.80;52.70
10042;DHT22;5061;49.068;12.058;2022-08-01T15:26:34;29.70;53.10
10042;DHT22;5061;49.068;12.058;2022-08-01T15:29:55;29.60;53.10
10042;DHT22;5061;49.068;12.058;2022-08-01T15:33:16;29.40;53.20
10042;DHT22;5061;49.068;12.058;2022-08-01T15:36:37;29.40;53.00
10042;DHT22;5061;49.068;12.058;2022-08-01T15:39:58;29.40;52.90
10042;DHT22;5061;49.068;12.058;2022-08-01T15:43:18;29.40;53.00
10042;DHT22;5061;49.068;12.058;2022-08-01T15:46:39;29.40;52.80
10042;DHT22;5061;49.068;12.058;2022-08-01T15:50:00;29.40;53.10
10042;DHT22;5061;49.068;12.058;2022-08-01T15:53:22;29.50;52.90
10042;DHT22;5061;49.068;12.058;2022-08-01T15:56:42;29.30;52.70
10042;DHT22;5061;49.068;12.058;2022-08-01T16:00:04;29.20;52.80
10042;DHT22;5061;49.068;12.058;2022-08-01T16:03:25;29.00;53.10
10042;DHT22;5061;49.068;12.058;2022-08-01T16:06:47;28.90;53.20
10042;DHT22;5061;49.068;12.058;2022-08-01T16:10:07;28.70;53.30
10042;DHT22;5061;49.068;12.058;2022-08-01T16:13:28;28.70;53.40
10042;DHT22;5061;49.068;12.058;2022-08-01T16:16:49;28.50;53.50
10042;DHT22;5061;49.068;12.058;2022-08-01T16:20:10;28.40;53.50
10042;DHT22;5061;49.068;12.058;2022-08-01T16:23:30;28.30;53.30
10042;DHT22;5061;49.068;12.058;2022-08-01T16:26:51;28.30;53.30
10042;DHT22;5061;49.068;12.058;2022-08-01T16:30:12;28.10;53.20
10042;DHT22;5061;49.068;12.058;2022-08-01T16:33:32;28.00;53.40
10042;DHT22;5061;49.068;12.058;2022-08-01T16:36:54;27.90;53.30
10042;DHT22;5061;49.068;12.058;2022-08-01T16:40:14;27.80;53.40
10042;DHT22;5061;49.068;12.058;2022-08-01T16:43:35;27.70;53.40
10042;DHT22;5061;49.068;12.058;2022-08-01T16:46:57;27.60;53.50
10042;DHT22;5061;49.068;12.058;2022-08-01T16:50:17;27.60;53.60
10042;DHT22;5061;49.068;12.058;2022-08-01T16:53:38;27.40;53.50
10042;DHT22;5061;49.068;12.058;2022-08-01T16:56:59;27.40;53.70
10042;DHT22;5061;49.068;12.058;2022-08-01T17:00:20;27.40;53.80
10042;DHT22;5061;49.068;12.058;2022-08-01T17:03:41;27.30;53.90
10042;DHT22;5061;49.068;12.058;2022-08-01T17:07:01;27.20;54.00
10042;DHT22;5061;49.068;12.058;2022-08-01T17:10:22;27.20;54.00
10042;DHT22;5061;49.068;12.058;2022-08-01T17:13:43;27.10;54.20
10042;DHT22;5061;49.068;12.058;2022-08-01T17:17:04;27.10;54.40
10042;DHT22;5061;49.068;12.058;2022-08-01T17:20:25;27.00;54.40
10042;DHT22;5061;49.068;12.058;2022-08-01T17:23:46;27.00;54.60
10042;DHT22;5061;49.068;12.058;2022-08-01T17:27:06;26.90;54.80
10042;DHT22;5061;49.068;12.058;2022-08-01T17:30:27;26.80;54.90
10042;DHT22;5061;49.068;12.058;2022-08-01T17:33:48;26.70;55.00
10042;DHT22;5061;49.068;12.058;2022-08-01T17:37:09;26.60;55.10
10042;DHT22;5061;49.068;12.058;2022-08-01T17:40:29;26.60;55.30
10042;DHT22;5061;49.068;12.058;2022-08-01T17:43:50;26.50;55.40
10042;DHT22;5061;49.068;12.058;2022-08-01T17:47:11;26.40;55.60
10042;DHT22;5061;49.068;12.058;2022-08-01T17:50:31;26.30;55.70
10042;DHT22;5061;49.068;12.058;2022-08-01T17:53:52;26.30;55.90
10042;DHT22;5061;49.068;12.058;2022-08-01T17:57:13;26.20;55.90
10042;DHT22;5061;49.068;12.058;2022-08-01T18:00:34;26.10;56.10
10042;DHT22;5061;49.068;12.058;2022-08-01T18:03:56;26.00;56.20
10042;DHT22;5061;49.068;12.058;2022-08-01T18:07:19;26.00;56.30
10042;DHT22;5061;49.068;12.058;2022-08-01T18:10:39;25.90;56.30
10042;DHT22;5061;49.068;12.058;2022-08-01T18:14:02;25.90;56.40
10042;DHT22;5061;49.068;12.058;2022-08-01T18:17:22;25.80;56.60
10042;DHT22;5061;49.068;12.058;2022-08-01T18:20:43;25.80;56.70
10042;DHT22;5061;49.068;12.058;2022-08-01T18:24:04;25.80;56.90
10042;DHT22;5061;49.068;12.058;2022-08-01T18:27:25;25.70;57.00
10042;DHT22;5061;49.068;12.058;2022-08-01T18:30:46;25.60;57.20
10042;DHT22;5061;49.068;12.058;2022-08-01T18:34:07;25.50;57.20
10042;DHT22;5061;49.068;12.058;2022-08-01T18:37:27;25.50;57.50
10042;DHT22;5061;49.068;12.058;2022-08-01T18:40:48;25.40;57.60
10042;DHT22;5061;49.068;12.058;2022-08-01T18:44:08;25.30;57.70
10042;DHT22;5061;49.068;12.058;2022-08-01T18:47:29;25.30;57.90
10042;DHT22;5061;49.068;12.058;2022-08-01T18:50:50;25.20;58.10
10042;DHT22;5061;49.068;12.058;2022-08-01T18:54:11;25.10;58.20
10042;DHT22;5061;49.068;12.058;2022-08-01T18:57:32;25.10;58.40
10042;DHT22;5061;49.068;12.058;2022-08-01T19:00:53;25.00;58.50
10042;DHT22;5061;49.068;12.058;2022-08-01T19:04:13;25.00;58.70
10042;DHT22;5061;49.068;12.058;2022-08-01T19:07:34;25.00;58.80
10042;DHT22;5061;49.068;12.058;2022-08-01T19:10:55;24.90;58.90
10042;DHT22;5061;49.068;12.058;2022-08-01T19:14:15;24.80;58.90
10042;DHT22;5061;49.068;12.058;2022-08-01T19:17:36;24.80;59.10
10042;DHT22;5061;49.068;12.058;2022-08-01T19:20:57;24.80;59.20
10042;DHT22;5061;49.068;12.058;2022-08-01T19:24:18;24.70;59.80
10042;DHT22;5061;49.068;12.058;2022-08-01T19:27:46;24.70;59.50
10042;DHT22;5061;49.068;12.058;2022-08-01T19:31:07;24.60;59.60
10042;DHT22;5061;49.068;12.058;2022-08-01T19:34:28;24.60;59.70
10042;DHT22;5061;49.068;12.058;2022-08-01T19:37:49;24.60;59.80
10042;DHT22;5061;49.068;12.058;2022-08-01T19:41:10;24.50;60.00
10042;DHT22;5061;49.068;12.058;2022-08-01T19:44:33;24.50;60.10
10042;DHT22;5061;49.068;12.058;2022-08-01T19:47:56;24.40;60.20
10042;DHT22;5061;49.068;12.058;2022-08-01T19:51:18;24.40;60.30
10042;DHT22;5061;49.068;12.058;2022-08-01T19:54:42;24.40;60.60
10042;DHT22;5061;49.068;12.058;2022-08-01T19:58:06;24.40;60.70
10042;DHT22;5061;49.068;12.058;2022-08-01T20:01:27;24.30;60.80
10042;DHT22;5061;49.068;12.058;2022-08-01T20:04:49;24.30;61.00
10042;DHT22;5061;49.068;12.058;2022-08-01T20:08:11;24.20;61.10
10042;DHT22;5061;49.068;12.058;2022-08-01T20:11:31;24.20;61.20
10042;DHT22;5061;49.068;12.058;2022-08-01T20:14:52;24.20;61.40
10042;DHT22;5061;49.068;12.058;2022-08-01T20:18:13;24.10;61.50
10042;DHT22;5061;49.068;12.058;2022-08-01T20:21:34;24.10;61.70
10042;DHT22;5061;49.068;12.058;2022-08-01T20:24:58;24.00;61.80
10042;DHT22;5061;49.068;12.058;2022-08-01T20:28:23;24.00;62.10
10042;DHT22;5061;49.068;12.058;2022-08-01T20:31:48;23.90;62.30
10042;DHT22;5061;49.068;12.058;2022-08-01T20:35:09;23.80;63.20
10042;DHT22;5061;49.068;12.058;2022-08-01T20:38:30;23.80;62.80
10042;DHT22;5061;49.068;12.058;2022-08-01T20:41:52;23.70;62.90
10042;DHT22;5061;49.068;12.058;2022-08-01T20:45:15;23.70;63.10
10042;DHT22;5061;49.068;12.058;2022-08-01T20:48:36;23.60;63.10
10042;DHT22;5061;49.068;12.058;2022-08-01T20:51:58;23.60;63.30
10042;DHT22;5061;49.068;12.058;2022-08-01T20:55:20;23.50;63.40
10042;DHT22;5061;49.068;12.058;2022-08-01T21:06:13;23.30;63.80
10042;DHT22;5061;49.068;12.058;2022-08-01T21:09:37;23.20;64.00
10042;DHT22;5061;49.068;12.058;2022-08-01T21:13:13;23.10;64.20
10042;DHT22;5061;49.068;12.058;2022-08-01T21:16:43;23.00;64.30
10042;DHT22;5061;49.068;12.058;2022-08-01T21:20:06;22.90;64.60
10042;DHT22;5061;49.068;12.058;2022-08-01T21:27:02;22.70;64.90
10042;DHT22;5061;49.068;12.058;2022-08-01T21:30:23;22.60;65.10
10042;DHT22;5061;49.068;12.058;2022-08-01T21:33:46;22.50;65.30
10042;DHT22;5061;49.068;12.058;2022-08-01T21:37:07;22.50;65.50
10042;DHT22;5061;49.068;12.058;2022-08-01T21:40:31;22.40;65.60
10042;DHT22;5061;49.068;12.058;2022-08-01T21:43:53;22.50;65.90
10042;DHT22;5061;49.068;12.058;2022-08-01T21:47:14;22.40;66.00
10042;DHT22;5061;49.068;12.058;2022-08-01T21:50:44;22.40;66.20
10042;DHT22;5061;49.068;12.058;2022-08-01T22:01:42;22.40;66.70